sensor_id;sensor_type;location;lat;lon;timestamp;temperature;humidity
63094;DHT22;49183;51.380;0.098;2023-07-20T06:51:48;13.30;83.50
63094;DHT22;49183;51.380;0.098;2023-07-20T06:54:16;13.40;83.50
63094;DHT22;49183;51.380;0.098;2023-07-20T07:00:06;13.50;83.50
63094;DHT22;49183;51.380;0.098;2023-07-20T07:02:34;13.50;83.40
63094;DHT22;49183;51.380;0.098;2023-07-20T07:05:03;13.60;83.40
63094;DHT22;49183;51.380;0.098;2023-07-20T07:07:46;13.60;83.30
63094;DHT22;49183;51.380;0.098;2023-07-20T07:10:14;13.70;83.20
63094;DHT22;49183;51.380;0.098;2023-07-20T07:12:42;13.80;83.10
63094;DHT22;49183;51.380;0.098;2023-07-20T07:15:09;13.80;83.00
63094;DHT22;49183;51.380;0.098;2023-07-20T07:17:38;13.90;82.90
63094;DHT22;49183;51.380;0.098;2023-07-20T07:20:06;14.00;82.80
63094;DHT22;49183;51.380;0.098;2023-07-20T07:22:37;14.10;82.70
63094;DHT22;49183;51.380;0.098;2023-07-20T07:25:05;14.20;82.50
63094;DHT22;49183;51.380;0.098;2023-07-20T07:27:33;14.20;82.40
63094;DHT22;49183;51.380;0.098;2023-07-20T07:30:01;14.30;82.30
63094;DHT22;49183;51.380;0.098;2023-07-20T07:32:29;14.30;82.10
63094;DHT22;49183;51.380;0.098;2023-07-20T07:34:57;14.30;81.90
63094;DHT22;49183;51.380;0.098;2023-07-20T07:37:25;14.30;81.80
63094;DHT22;49183;51.380;0.098;2023-07-20T07:39:53;14.30;81.80
63094;DHT22;49183;51.380;0.098;2023-07-20T07:42:21;14.30;81.80
63094;DHT22;49183;51.380;0.098;2023-07-20T07:44:51;14.40;81.90
63094;DHT22;49183;51.380;0.098;2023-07-20T07:47:18;14.40;81.90
63094;DHT22;49183;51.380;0.098;2023-07-20T07:49:46;14.40;81.90
63094;DHT22;49183;51.380;0.098;2023-07-20T07:52:13;14.50;81.80
63094;DHT22;49183;51.380;0.098;2023-07-20T07:54:41;14.60;81.70
63094;DHT22;49183;51.380;0.098;2023-07-20T07:57:09;14.70;81.60
63094;DHT22;49183;51.380;0.098;2023-07-20T07:59:36;14.80;81.60
63094;DHT22;49183;51.380;0.098;2023-07-20T08:02:05;14.80;81.50
63094;DHT22;49183;51.380;0.098;2023-07-20T08:04:33;14.90;81.30
63094;DHT22;49183;51.380;0.098;2023-07-20T08:07:03;15.00;81.20
63094;DHT22;49183;51.380;0.098;2023-07-20T08:09:31;15.10;81.00
63094;DHT22;49183;51.380;0.098;2023-07-20T08:11:58;15.20;80.80
63094;DHT22;49183;51.380;0.098;2023-07-20T08:14:27;15.30;80.60
63094;DHT22;49183;51.380;0.098;2023-07-20T08:16:55;15.30;80.30
63094;DHT22;49183;51.380;0.098;2023-07-20T08:19:22;15.40;80.30
63094;DHT22;49183;51.380;0.098;2023-07-20T08:21:51;15.70;80.20
63094;DHT22;49183;51.380;0.098;2023-07-20T08:24:19;15.80;79.90
63094;DHT22;49183;51.380;0.098;2023-07-20T08:26:46;15.90;79.50
63094;DHT22;49183;51.380;0.098;2023-07-20T08:29:14;15.80;79.50
63094;DHT22;49183;51.380;0.098;2023-07-20T08:31:42;15.80;79.70
63094;DHT22;49183;51.380;0.098;2023-07-20T08:34:09;15.70;79.90
63094;DHT22;49183;51.380;0.098;2023-07-20T08:36:56;15.80;79.90
63094;DHT22;49183;51.380;0.098;2023-07-20T08:39:24;15.80;79.70
63094;DHT22;49183;51.380;0.098;2023-07-20T08:41:52;15.90;79.50
63094;DHT22;49183;51.380;0.098;2023-07-20T08:44:21;16.00;79.40
63094;DHT22;49183;51.380;0.098;2023-07-20T08:46:50;16.20;79.20
63094;DHT22;49183;51.380;0.098;2023-07-20T08:49:18;16.40;78.90
63094;DHT22;49183;51.380;0.098;2023-07-20T08:51:46;16.60;78.30
63094;DHT22;49183;51.380;0.098;2023-07-20T08:54:14;16.80;77.80
63094;DHT22;49183;51.380;0.098;2023-07-20T08:56:43;16.90;77.30
63094;DHT22;49183;51.380;0.098;2023-07-20T08:59:12;17.10;76.90
63094;DHT22;49183;51.380;0.098;2023-07-20T09:01:42;17.30;76.50
63094;DHT22;49183;51.380;0.098;2023-07-20T09:04:10;17.60;75.90
63094;DHT22;49183;51.380;0.098;2023-07-20T09:06:38;17.80;75.10
63094;DHT22;49183;51.380;0.098;2023-07-20T09:09:06;17.80;74.10
63094;DHT22;49183;51.380;0.098;2023-07-20T09:11:34;17.80;73.30
63094;DHT22;49183;51.380;0.098;2023-07-20T09:14:02;17.80;72.70
63094;DHT22;49183;51.380;0.098;2023-07-20T09:16:30;17.80;72.10
63094;DHT22;49183;51.380;0.098;2023-07-20T09:18:58;17.60;72.00
63094;DHT22;49183;51.380;0.098;2023-07-20T09:21:28;17.60;71.80
63094;DHT22;49183;51.380;0.098;2023-07-20T09:23:56;17.40;71.80
63094;DHT22;49183;51.380;0.098;2023-07-20T09:26:24;17.30;72.00
63094;DHT22;49183;51.380;0.098;2023-07-20T09:28:54;17.10;72.20
63094;DHT22;49183;51.380;0.098;2023-07-20T09:31:23;16.90;73.30
63094;DHT22;49183;51.380;0.098;2023-07-20T09:33:52;16.80;74.30
63094;DHT22;49183;51.380;0.098;2023-07-20T09:36:22;16.70;74.70
63094;DHT22;49183;51.380;0.098;2023-07-20T09:39:10;16.60;75.20
63094;DHT22;49183;51.380;0.098;2023-07-20T09:41:41;16.60;75.40
63094;DHT22;49183;51.380;0.098;2023-07-20T09:44:15;16.70;75.40
63094;DHT22;49183;51.380;0.098;2023-07-20T09:46:49;16.80;75.40
63094;DHT22;49183;51.380;0.098;2023-07-20T09:49:21;16.90;74.90
63094;DHT22;49183;51.380;0.098;2023-07-20T09:51:51;17.10;74.60
63094;DHT22;49183;51.380;0.098;2023-07-20T09:54:21;17.10;73.90
63094;DHT22;49183;51.380;0.098;2023-07-20T09:56:49;17.30;73.60
63094;DHT22;49183;51.380;0.098;2023-07-20T09:59:18;17.50;73.30
63094;DHT22;49183;51.380;0.098;2023-07-20T10:01:46;17.60;72.70
63094;DHT22;49183;51.380;0.098;2023-07-20T10:04:13;17.70;72.40
63094;DHT22;49183;51.380;0.098;2023-07-20T10:06:42;17.80;72.20
63094;DHT22;49183;51.380;0.098;2023-07-20T10:09:10;17.90;71.90
63094;DHT22;49183;51.380;0.098;2023-07-20T10:11:37;18.10;71.40
63094;DHT22;49183;51.380;0.098;2023-07-20T10:14:09;18.10;70.90
63094;DHT22;49183;51.380;0.098;2023-07-20T10:16:39;18.20;69.90
63094;DHT22;49183;51.380;0.098;2023-07-20T10:19:23;18.20;69.70
63094;DHT22;49183;51.380;0.098;2023-07-20T10:21:56;18.30;69.30
63094;DHT22;49183;51.380;0.098;2023-07-20T10:24:26;18.30;69.10
63094;DHT22;49183;51.380;0.098;2023-07-20T10:26:55;18.30;68.90
63094;DHT22;49183;51.380;0.098;2023-07-20T10:29:23;18.30;68.50
63094;DHT22;49183;51.380;0.098;2023-07-20T10:31:51;18.30;68.20
63094;DHT22;49183;51.380;0.098;2023-07-20T10:34:22;18.40;68.10
63094;DHT22;49183;51.380;0.098;2023-07-20T10:36:50;18.50;67.90
63094;DHT22;49183;51.380;0.098;2023-07-20T10:39:25;18.60;67.70
63094;DHT22;49183;51.380;0.098;2023-07-20T10:42:16;18.70;67.40
63094;DHT22;49183;51.380;0.098;2023-07-20T10:44:44;18.80;67.00
63094;DHT22;49183;51.380;0.098;2023-07-20T10:47:12;18.90;66.50
63094;DHT22;49183;51.380;0.098;2023-07-20T10:49:59;19.10;66.10
63094;DHT22;49183;51.380;0.098;2023-07-20T10:52:37;19.20;65.50
63094;DHT22;49183;51.380;0.098;2023-07-20T10:55:14;19.30;64.70
63094;DHT22;49183;51.380;0.098;2023-07-20T10:57:42;19.40;63.90
63094;DHT22;49183;51.380;0.098;2023-07-20T11:00:10;19.50;64.10
63094;DHT22;49183;51.380;0.098;2023-07-20T11:02:43;19.60;63.30
63094;DHT22;49183;51.380;0.098;2023-07-20T11:07:57;19.70;61.80
63094;DHT22;49183;51.380;0.098;2023-07-20T11:10:24;19.80;62.10
63094;DHT22;49183;51.380;0.098;2023-07-20T11:15:44;20.10;60.20
63094;DHT22;49183;51.380;0.098;2023-07-20T11:18:14;20.10;59.30
63094;DHT22;49183;51.380;0.098;2023-07-20T11:20:41;20.20;59.00
63094;DHT22;49183;51.380;0.098;2023-07-20T11:23:09;20.20;58.10
63094;DHT22;49183;51.380;0.098;2023-07-20T11:25:40;20.20;57.50
63094;DHT22;49183;51.380;0.098;2023-07-20T11:28:08;20.20;56.10
63094;DHT22;49183;51.380;0.098;2023-07-20T11:30:38;20.10;57.20
63094;DHT22;49183;51.380;0.098;2023-07-20T11:33:08;20.10;57.50
63094;DHT22;49183;51.380;0.098;2023-07-20T11:35:41;20.10;57.30
63094;DHT22;49183;51.380;0.098;2023-07-20T11:38:09;20.00;56.90
63094;DHT22;49183;51.380;0.098;2023-07-20T11:40:41;19.90;57.00
63094;DHT22;49183;51.380;0.098;2023-07-20T11:43:09;19.90;57.10
63094;DHT22;49183;51.380;0.098;2023-07-20T11:45:41;20.10;56.90
63094;DHT22;49183;51.380;0.098;2023-07-20T11:48:14;20.20;56.90
63094;DHT22;49183;51.380;0.098;2023-07-20T11:50:41;20.40;56.60
63094;DHT22;49183;51.380;0.098;2023-07-20T11:53:09;20.50;57.00
63094;DHT22;49183;51.380;0.098;2023-07-20T11:55:37;20.60;56.10
63094;DHT22;49183;51.380;0.098;2023-07-20T11:58:06;20.40;55.00
63094;DHT22;49183;51.380;0.098;2023-07-20T12:00:34;20.40;54.90
63094;DHT22;49183;51.380;0.098;2023-07-20T12:03:04;20.60;54.90
63094;DHT22;49183;51.380;0.098;2023-07-20T12:05:34;20.80;53.80
63094;DHT22;49183;51.380;0.098;2023-07-20T12:08:22;20.90;53.40
63094;DHT22;49183;51.380;0.098;2023-07-20T12:10:50;20.90;53.20
63094;DHT22;49183;51.380;0.098;2023-07-20T12:13:18;21.10;53.30
63094;DHT22;49183;51.380;0.098;2023-07-20T12:15:46;21.00;52.10
63094;DHT22;49183;51.380;0.098;2023-07-20T12:18:13;20.90;52.00
63094;DHT22;49183;51.380;0.098;2023-07-20T12:20:41;20.80;52.50
63094;DHT22;49183;51.380;0.098;2023-07-20T12:23:09;20.80;51.70
63094;DHT22;49183;51.380;0.098;2023-07-20T12:25:44;20.60;51.60
63094;DHT22;49183;51.380;0.098;2023-07-20T12:28:12;20.40;51.70
63094;DHT22;49183;51.380;0.098;2023-07-20T12:30:41;20.30;51.50
63094;DHT22;49183;51.380;0.098;2023-07-20T12:33:09;20.40;51.90
63094;DHT22;49183;51.380;0.098;2023-07-20T12:35:37;20.60;52.00
63094;DHT22;49183;51.380;0.098;2023-07-20T12:38:04;20.70;51.40
63094;DHT22;49183;51.380;0.098;2023-07-20T12:40:33;20.80;51.00
63094;DHT22;49183;51.380;0.098;2023-07-20T12:43:01;20.90;50.90
63094;DHT22;49183;51.380;0.098;2023-07-20T12:45:28;20.90;49.90
63094;DHT22;49183;51.380;0.098;2023-07-20T12:47:56;20.80;49.40
63094;DHT22;49183;51.380;0.098;2023-07-20T12:50:23;20.80;50.00
63094;DHT22;49183;51.380;0.098;2023-07-20T12:52:51;20.90;50.00
63094;DHT22;49183;51.380;0.098;2023-07-20T12:55:19;21.00;49.20
63094;DHT22;49183;51.380;0.098;2023-07-20T12:57:47;21.10;49.00
63094;DHT22;49183;51.380;0.098;2023-07-20T13:00:15;21.20;48.20
63094;DHT22;49183;51.380;0.098;2023-07-20T13:02:43;21.10;46.80
63094;DHT22;49183;51.380;0.098;2023-07-20T13:05:11;20.80;47.00
63094;DHT22;49183;51.380;0.098;2023-07-20T13:07:38;20.70;47.60
63094;DHT22;49183;51.380;0.098;2023-07-20T13:10:10;20.70;48.20
63094;DHT22;49183;51.380;0.098;2023-07-20T13:12:38;20.80;48.10
63094;DHT22;49183;51.380;0.098;2023-07-20T13:15:06;20.80;48.30
63094;DHT22;49183;51.380;0.098;2023-07-20T13:17:35;20.80;47.90
63094;DHT22;49183;51.380;0.098;2023-07-20T13:20:03;20.80;47.80
63094;DHT22;49183;51.380;0.098;2023-07-20T13:22:33;20.90;47.70
63094;DHT22;49183;51.380;0.098;2023-07-20T13:25:01;20.80;47.40
63094;DHT22;49183;51.380;0.098;2023-07-20T13:27:29;20.80;47.60
63094;DHT22;49183;51.380;0.098;2023-07-20T13:29:59;20.90;48.30
63094;DHT22;49183;51.380;0.098;2023-07-20T13:32:30;21.00;48.10
63094;DHT22;49183;51.380;0.098;2023-07-20T13:35:00;21.00;47.90
63094;DHT22;49183;51.380;0.098;2023-07-20T13:37:28;20.90;48.30
63094;DHT22;49183;51.380;0.098;2023-07-20T13:39:56;20.70;48.80
63094;DHT22;49183;51.380;0.098;2023-07-20T13:42:24;20.60;49.50
63094;DHT22;49183;51.380;0.098;2023-07-20T13:44:51;20.40;49.70
63094;DHT22;49183;51.380;0.098;2023-07-20T13:47:19;20.30;50.00
63094;DHT22;49183;51.380;0.098;2023-07-20T13:49:49;20.30;50.30
63094;DHT22;49183;51.380;0.098;2023-07-20T13:52:29;20.30;49.60
63094;DHT22;49183;51.380;0.098;2023-07-20T13:54:59;20.30;48.90
63094;DHT22;49183;51.380;0.098;2023-07-20T13:57:31;20.30;48.30
63094;DHT22;49183;51.380;0.098;2023-07-20T14:00:02;20.20;48.10
63094;DHT22;49183;51.380;0.098;2023-07-20T14:02:41;20.10;48.50
63094;DHT22;49183;51.380;0.098;2023-07-20T14:05:11;20.20;49.10
63094;DHT22;49183;51.380;0.098;2023-07-20T14:07:41;20.10;49.50
63094;DHT22;49183;51.380;0.098;2023-07-20T14:10:11;20.20;50.20
63094;DHT22;49183;51.380;0.098;2023-07-20T14:12:41;20.30;50.50
63094;DHT22;49183;51.380;0.098;2023-07-20T14:15:09;20.40;50.50
63094;DHT22;49183;51.380;0.098;2023-07-20T14:17:37;20.40;50.30
63094;DHT22;49183;51.380;0.098;2023-07-20T14:20:05;20.40;49.90
63094;DHT22;49183;51.380;0.098;2023-07-20T14:22:48;20.40;49.90
63094;DHT22;49183;51.380;0.098;2023-07-20T14:25:18;20.40;50.00
63094;DHT22;49183;51.380;0.098;2023-07-20T14:27:47;20.40;50.00
63094;DHT22;49183;51.380;0.098;2023-07-20T14:30:15;20.40;50.00
63094;DHT22;49183;51.380;0.098;2023-07-20T14:32:45;20.40;50.00
63094;DHT22;49183;51.380;0.098;2023-07-20T14:35:13;20.30;50.50
63094;DHT22;49183;51.380;0.098;2023-07-20T14:37:41;20.40;50.30
63094;DHT22;49183;51.380;0.098;2023-07-20T14:40:10;20.30;50.10
63094;DHT22;49183;51.380;0.098;2023-07-20T14:42:42;20.30;50.10
63094;DHT22;49183;51.380;0.098;2023-07-20T14:45:10;20.30;49.80
63094;DHT22;49183;51.380;0.098;2023-07-20T14:47:39;20.40;49.80
63094;DHT22;49183;51.380;0.098;2023-07-20T14:50:07;20.40;49.70
63094;DHT22;49183;51.380;0.098;2023-07-20T14:52:35;20.40;49.00
63094;DHT22;49183;51.380;0.098;2023-07-20T14:55:03;20.40;48.50
63094;DHT22;49183;51.380;0.098;2023-07-20T14:57:31;20.30;48.60
63094;DHT22;49183;51.380;0.098;2023-07-20T14:59:59;20.40;48.40
63094;DHT22;49183;51.380;0.098;2023-07-20T15:02:27;20.60;48.20
63094;DHT22;49183;51.380;0.098;2023-07-20T15:04:55;20.70;47.60
63094;DHT22;49183;51.380;0.098;2023-07-20T15:07:24;20.80;46.80
63094;DHT22;49183;51.380;0.098;2023-07-20T15:09:51;20.90;46.60
63094;DHT22;49183;51.380;0.098;2023-07-20T15:12:19;20.90;46.30
63094;DHT22;49183;51.380;0.098;2023-07-20T15:14:49;20.90;45.00
63094;DHT22;49183;51.380;0.098;2023-07-20T15:17:28;20.80;45.50
63094;DHT22;49183;51.380;0.098;2023-07-20T15:19:56;20.70;45.90
63094;DHT22;49183;51.380;0.098;2023-07-20T15:22:26;20.70;45.80
63094;DHT22;49183;51.380;0.098;2023-07-20T15:24:54;20.70;46.00
63094;DHT22;49183;51.380;0.098;2023-07-20T15:27:21;20.90;46.20
63094;DHT22;49183;51.380;0.098;2023-07-20T15:29:49;21.10;46.10
63094;DHT22;49183;51.380;0.098;2023-07-20T15:32:20;21.20;45.40
63094;DHT22;49183;51.380;0.098;2023-07-20T15:34:48;21.30;45.10
63094;DHT22;49183;51.380;0.098;2023-07-20T15:37:15;21.30;45.00
63094;DHT22;49183;51.380;0.098;2023-07-20T15:39:43;21.30;45.10
63094;DHT22;49183;51.380;0.098;2023-07-20T15:42:13;21.30;45.60
63094;DHT22;49183;51.380;0.098;2023-07-20T15:44:40;21.50;45.40
63094;DHT22;49183;51.380;0.098;2023-07-20T15:47:09;21.50;45.20
63094;DHT22;49183;51.380;0.098;2023-07-20T15:49:37;21.40;45.30
63094;DHT22;49183;51.380;0.098;2023-07-20T15:52:05;21.30;45.40
63094;DHT22;49183;51.380;0.098;2023-07-20T15:54:34;21.10;45.40
63094;DHT22;49183;51.380;0.098;2023-07-20T15:57:02;20.90;45.80
63094;DHT22;49183;51.380;0.098;2023-07-20T15:59:30;20.80;46.00
63094;DHT22;49183;51.380;0.098;2023-07-20T16:01:57;21.00;46.60
63094;DHT22;49183;51.380;0.098;2023-07-20T16:04:27;21.10;46.30
63094;DHT22;49183;51.380;0.098;2023-07-20T16:06:56;21.10;44.80
63094;DHT22;49183;51.380;0.098;2023-07-20T16:09:23;20.80;45.10
63094;DHT22;49183;51.380;0.098;2023-07-20T16:11:51;20.40;45.90
63094;DHT22;49183;51.380;0.098;2023-07-20T16:14:18;20.30;46.50
63094;DHT22;49183;51.380;0.098;2023-07-20T16:16:46;20.20;46.40
63094;DHT22;49183;51.380;0.098;2023-07-20T16:19:14;20.40;46.70
63094;DHT22;49183;51.380;0.098;2023-07-20T16:21:41;20.60;46.10
63094;DHT22;49183;51.380;0.098;2023-07-20T16:24:09;20.60;45.90
63094;DHT22;49183;51.380;0.098;2023-07-20T16:26:38;20.30;46.10
63094;DHT22;49183;51.380;0.098;2023-07-20T16:29:10;20.10;46.60
63094;DHT22;49183;51.380;0.098;2023-07-20T16:31:41;20.10;46.70
63094;DHT22;49183;51.380;0.098;2023-07-20T16:34:12;20.30;46.70
63094;DHT22;49183;51.380;0.098;2023-07-20T16:36:40;20.50;46.80
63094;DHT22;49183;51.380;0.098;2023-07-20T16:39:11;20.60;47.10
63094;DHT22;49183;51.380;0.098;2023-07-20T16:41:42;20.70;47.10
63094;DHT22;49183;51.380;0.098;2023-07-20T16:44:12;20.80;47.20
63094;DHT22;49183;51.380;0.098;2023-07-20T16:46:41;21.00;47.30
63094;DHT22;49183;51.380;0.098;2023-07-20T16:49:12;20.90;47.10
63094;DHT22;49183;51.380;0.098;2023-07-20T16:51:40;20.70;47.70
63094;DHT22;49183;51.380;0.098;2023-07-20T16:54:08;20.40;48.30
63094;DHT22;49183;51.380;0.098;2023-07-20T16:56:36;20.20;48.50
63094;DHT22;49183;51.380;0.098;2023-07-20T16:59:03;20.10;48.80
63094;DHT22;49183;51.380;0.098;2023-07-20T17:01:31;20.00;49.00
63094;DHT22;49183;51.380;0.098;2023-07-20T17:04:01;19.80;49.40
63094;DHT22;49183;51.380;0.098;2023-07-20T17:06:28;19.60;50.10
63094;DHT22;49183;51.380;0.098;2023-07-20T17:08:56;19.30;50.80
63094;DHT22;49183;51.380;0.098;2023-07-20T17:11:30;19.20;51.30
63094;DHT22;49183;51.380;0.098;2023-07-20T17:13:58;19.00;51.80
63094;DHT22;49183;51.380;0.098;2023-07-20T17:16:25;18.80;52.10
63094;DHT22;49183;51.380;0.098;2023-07-20T17:18:53;18.70;52.60
63094;DHT22;49183;51.380;0.098;2023-07-20T17:21:20;18.70;53.00
63094;DHT22;49183;51.380;0.098;2023-07-20T17:23:49;18.70;53.30
63094;DHT22;49183;51.380;0.098;2023-07-20T17:26:19;18.80;53.40
63094;DHT22;49183;51.380;0.098;2023-07-20T17:28:50;18.90;53.40
63094;DHT22;49183;51.380;0.098;2023-07-20T17:31:17;19.30;53.00
63094;DHT22;49183;51.380;0.098;2023-07-20T17:33:47;19.70;52.60
63094;DHT22;49183;51.380;0.098;2023-07-20T17:36:15;20.20;52.00
63094;DHT22;49183;51.380;0.098;2023-07-20T17:38:47;20.50;51.20
63094;DHT22;49183;51.380;0.098;2023-07-20T17:41:15;20.60;50.60
63094;DHT22;49183;51.380;0.098;2023-07-20T17:43:43;20.30;50.70
63094;DHT22;49183;51.380;0.098;2023-07-20T17:46:10;20.10;51.10
63094;DHT22;49183;51.380;0.098;2023-07-20T17:48:41;19.70;51.30
63094;DHT22;49183;51.380;0.098;2023-07-20T17:51:09;19.60;51.30
63094;DHT22;49183;51.380;0.098;2023-07-20T17:53:36;19.40;51.40
63094;DHT22;49183;51.380;0.098;2023-07-20T17:56:04;19.40;51.20
63094;DHT22;49183;51.380;0.098;2023-07-20T17:58:33;19.30;51.60
63094;DHT22;49183;51.380;0.098;2023-07-20T18:01:01;19.20;51.70
63094;DHT22;49183;51.380;0.098;2023-07-20T18:03:28;19.10;51.90
63094;DHT22;49183;51.380;0.098;2023-07-20T18:05:56;19.20;51.70
63094;DHT22;49183;51.380;0.098;2023-07-20T18:08:23;19.20;51.50
63094;DHT22;49183;51.380;0.098;2023-07-20T18:10:52;19.40;51.50
63094;DHT22;49183;51.380;0.098;2023-07-20T18:13:20;19.80;51.20
63094;DHT22;49183;51.380;0.098;2023-07-20T18:15:54;20.30;50.50
63094;DHT22;49183;51.380;0.098;2023-07-20T18:18:22;20.50;50.00
63094;DHT22;49183;51.380;0.098;2023-07-20T18:20:50;20.40;49.70
63094;DHT22;49183;51.380;0.098;2023-07-20T18:23:18;20.30;49.80
63094;DHT22;49183;51.380;0.098;2023-07-20T18:25:45;20.00;50.00
63094;DHT22;49183;51.380;0.098;2023-07-20T18:28:14;19.70;50.50
63094;DHT22;49183;51.380;0.098;2023-07-20T18:30:41;19.60;50.80
63094;DHT22;49183;51.380;0.098;2023-07-20T18:33:10;19.50;51.00
63094;DHT22;49183;51.380;0.098;2023-07-20T18:35:37;19.30;51.50
63094;DHT22;49183;51.380;0.098;2023-07-20T18:38:05;18.90;52.10
63094;DHT22;49183;51.380;0.098;2023-07-20T18:40:33;18.60;52.70
63094;DHT22;49183;51.380;0.098;2023-07-20T18:43:00;18.40;53.10
63094;DHT22;49183;51.380;0.098;2023-07-20T18:45:28;18.30;53.60
63094;DHT22;49183;51.380;0.098;2023-07-20T18:47:58;18.20;54.10
63094;DHT22;49183;51.380;0.098;2023-07-20T18:50:26;18.00;54.40
63094;DHT22;49183;51.380;0.098;2023-07-20T18:52:53;17.80;54.80
63094;DHT22;49183;51.380;0.098;2023-07-20T18:55:24;17.50;55.20
63094;DHT22;49183;51.380;0.098;2023-07-20T18:57:52;17.30;55.80
63094;DHT22;49183;51.380;0.098;2023-07-20T19:00:19;17.10;56.30
63094;DHT22;49183;51.380;0.098;2023-07-20T19:02:47;17.00;56.80
63094;DHT22;49183;51.380;0.098;2023-07-20T19:05:15;16.90;57.00
63094;DHT22;49183;51.380;0.098;2023-07-20T19:07:42;16.90;57.20
63094;DHT22;49183;51.380;0.098;2023-07-20T19:10:10;16.80;57.20
63094;DHT22;49183;51.380;0.098;2023-07-20T19:12:40;16.80;57.40
63094;DHT22;49183;51.380;0.098;2023-07-20T19:15:07;16.70;57.80
63094;DHT22;49183;51.380;0.098;2023-07-20T19:17:37;16.70;57.90
63094;DHT22;49183;51.380;0.098;2023-07-20T19:20:04;16.70;58.00
63094;DHT22;49183;51.380;0.098;2023-07-20T19:22:32;16.60;58.00
63094;DHT22;49183;51.380;0.098;2023-07-20T19:24:59;16.70;57.90
63094;DHT22;49183;51.380;0.098;2023-07-20T19:27:27;16.60;57.80
63094;DHT22;49183;51.380;0.098;2023-07-20T19:29:56;16.60;57.90
63094;DHT22;49183;51.380;0.098;2023-07-20T19:32:23;16.40;58.10
63094;DHT22;49183;51.380;0.098;2023-07-20T19:34:51;16.30;58.40
63094;DHT22;49183;51.380;0.098;2023-07-20T19:37:19;16.40;58.20
63094;DHT22;49183;51.380;0.098;2023-07-20T19:39:46;16.40;58.10
63094;DHT22;49183;51.380;0.098;2023-07-20T19:42:14;16.40;58.30
63094;DHT22;49183;51.380;0.098;2023-07-20T19:44:41;16.30;58.60
63094;DHT22;49183;51.380;0.098;2023-07-20T19:47:09;16.30;58.90
63094;DHT22;49183;51.380;0.098;2023-07-20T19:49:37;16.20;58.80
63094;DHT22;49183;51.380;0.098;2023-07-20T19:52:06;16.20;59.00
63094;DHT22;49183;51.380;0.098;2023-07-20T19:54:33;16.10;59.30
63094;DHT22;49183;51.380;0.098;2023-07-20T19:57:01;15.90;59.70
63094;DHT22;49183;51.380;0.098;2023-07-20T19:59:28;15.80;60.10
63094;DHT22;49183;51.380;0.098;2023-07-20T20:01:56;15.60;60.40
63094;DHT22;49183;51.380;0.098;2023-07-20T20:04:24;15.50;60.80
63094;DHT22;49183;51.380;0.098;2023-07-20T20:06:54;15.30;61.30
63094;DHT22;49183;51.380;0.098;2023-07-20T20:09:22;15.00;61.90
63094;DHT22;49183;51.380;0.098;2023-07-20T20:11:52;14.80;62.40
63094;DHT22;49183;51.380;0.098;2023-07-20T20:14:19;14.60;62.90
63094;DHT22;49183;51.380;0.098;2023-07-20T20:16:47;14.30;63.40
63094;DHT22;49183;51.380;0.098;2023-07-20T20:19:15;14.20;63.90
63094;DHT22;49183;51.380;0.098;2023-07-20T20:21:43;14.00;64.30
63094;DHT22;49183;51.380;0.098;2023-07-20T20:24:11;13.80;64.70
63094;DHT22;49183;51.380;0.098;2023-07-20T20:26:38;13.80;65.10
63094;DHT22;49183;51.380;0.098;2023-07-20T20:29:08;13.60;65.30
63094;DHT22;49183;51.380;0.098;2023-07-20T20:31:35;13.40;65.60
